Kensen, Arkansas
Current Conditions -  °F | °C
As of 1:56 PM on Friday 24 Oct 2014 (Local Time) from KSRC Reporting Station
Scattered Clouds Scattered Clouds  
Wind Chill: 75°   Ceiling: Unl
Heat Index: 75°   Visibility: 9mi
Dew Point: 54°   Wind: 6mph
Humidity: 48%   Direction: NA
Pressure: 30.12"   Gusts: NA
Location:  35.2119°N, 91.6651°W
Report Text: KSRC 241856Z AUTO VRB05KT 9SM SCT044 24/12 A3012 RMK AO2 SLP205 T02390122 TSNO
Loading
Personal Weather Stations






























Interactive Weather Map
Tropical Storm Tracking
New forecast layout! Learn more

10-Day Weather Forecast

Advertisements
Track Severe Weather on mobile